sensor_id;sensor_type;location;lat;lon;timestamp;P1;durP1;ratioP1;P2;durP2;ratioP2
74152;SDS011;62505;46.070;14.492;2023-08-07T00:01:41;11.77;;;2.53;;
74152;SDS011;62505;46.070;14.492;2023-08-07T00:04:08;15.75;;;2.17;;
74152;SDS011;62505;46.070;14.492;2023-08-07T00:06:36;12.43;;;2.03;;
74152;SDS011;62505;46.070;14.492;2023-08-07T00:09:03;10.45;;;2.17;;
74152;SDS011;62505;46.070;14.492;2023-08-07T00:11:30;15.77;;;2.15;;
74152;SDS011;62505;46.070;14.492;2023-08-07T00:13:57;7.35;;;1.45;;
74152;SDS011;62505;46.070;14.492;2023-08-07T00:16:25;11.30;;;1.80;;
74152;SDS011;62505;46.070;14.492;2023-08-07T00:18:53;5.22;;;1.63;;
74152;SDS011;62505;46.070;14.492;2023-08-07T00:21:21;4.80;;;1.73;;
74152;SDS011;62505;46.070;14.492;2023-08-07T00:23:49;5.93;;;1.38;;
74152;SDS011;62505;46.070;14.492;2023-08-07T00:26:17;5.60;;;1.50;;
74152;SDS011;62505;46.070;14.492;2023-08-07T00:28:44;8.23;;;1.70;;
74152;SDS011;62505;46.070;14.492;2023-08-07T00:31:11;6.18;;;1.80;;
74152;SDS011;62505;46.070;14.492;2023-08-07T00:33:38;8.13;;;1.83;;
74152;SDS011;62505;46.070;14.492;2023-08-07T00:36:05;8.45;;;1.90;;
74152;SDS011;62505;46.070;14.492;2023-08-07T00:38:32;7.00;;;1.50;;
74152;SDS011;62505;46.070;14.492;2023-08-07T00:41:01;8.80;;;2.03;;
74152;SDS011;62505;46.070;14.492;2023-08-07T00:43:28;8.80;;;1.60;;
74152;SDS011;62505;46.070;14.492;2023-08-07T00:45:55;9.18;;;2.40;;
74152;SDS011;62505;46.070;14.492;2023-08-07T00:48:22;9.68;;;2.17;;
74152;SDS011;62505;46.070;14.492;2023-08-07T00:50:49;10.40;;;2.08;;
74152;SDS011;62505;46.070;14.492;2023-08-07T00:53:18;5.63;;;1.92;;
74152;SDS011;62505;46.070;14.492;2023-08-07T00:55:45;8.48;;;2.30;;
74152;SDS011;62505;46.070;14.492;2023-08-07T00:58:14;8.65;;;2.00;;
74152;SDS011;62505;46.070;14.492;2023-08-07T01:00:41;7.68;;;1.88;;
74152;SDS011;62505;46.070;14.492;2023-08-07T01:03:08;11.38;;;2.67;;
74152;SDS011;62505;46.070;14.492;2023-08-07T01:05:38;6.28;;;2.08;;
74152;SDS011;62505;46.070;14.492;2023-08-07T01:08:06;10.73;;;2.17;;
74152;SDS011;62505;46.070;14.492;2023-08-07T01:10:36;8.90;;;1.90;;
74152;SDS011;62505;46.070;14.492;2023-08-07T01:13:12;10.95;;;1.65;;
74152;SDS011;62505;46.070;14.492;2023-08-07T01:15:46;8.02;;;1.65;;
74152;SDS011;62505;46.070;14.492;2023-08-07T01:18:16;9.45;;;2.20;;
74152;SDS011;62505;46.070;14.492;2023-08-07T01:20:44;9.98;;;2.45;;
74152;SDS011;62505;46.070;14.492;2023-08-07T01:23:12;9.23;;;1.67;;
74152;SDS011;62505;46.070;14.492;2023-08-07T01:25:39;10.10;;;2.25;;
74152;SDS011;62505;46.070;14.492;2023-08-07T01:28:09;15.45;;;3.08;;
74152;SDS011;62505;46.070;14.492;2023-08-07T01:30:44;20.50;;;3.80;;
74152;SDS011;62505;46.070;14.492;2023-08-07T01:33:16;21.33;;;3.40;;
74152;SDS011;62505;46.070;14.492;2023-08-07T01:35:51;15.05;;;2.90;;
74152;SDS011;62505;46.070;14.492;2023-08-07T01:38:21;17.98;;;3.22;;
74152;SDS011;62505;46.070;14.492;2023-08-07T01:40:51;24.27;;;4.22;;
74152;SDS011;62505;46.070;14.492;2023-08-07T01:43:19;17.52;;;3.33;;
74152;SDS011;62505;46.070;14.492;2023-08-07T01:45:46;15.63;;;3.05;;
74152;SDS011;62505;46.070;14.492;2023-08-07T01:48:13;15.93;;;3.15;;
74152;SDS011;62505;46.070;14.492;2023-08-07T01:50:40;17.60;;;3.10;;
74152;SDS011;62505;46.070;14.492;2023-08-07T01:53:07;22.98;;;3.63;;
74152;SDS011;62505;46.070;14.492;2023-08-07T01:55:36;15.55;;;2.88;;
74152;SDS011;62505;46.070;14.492;2023-08-07T01:58:03;15.43;;;2.67;;
74152;SDS011;62505;46.070;14.492;2023-08-07T02:00:30;15.18;;;2.63;;
74152;SDS011;62505;46.070;14.492;2023-08-07T02:02:57;14.95;;;2.53;;
74152;SDS011;62505;46.070;14.492;2023-08-07T02:05:24;11.07;;;2.38;;
74152;SDS011;62505;46.070;14.492;2023-08-07T02:07:51;14.98;;;2.50;;
74152;SDS011;62505;46.070;14.492;2023-08-07T02:10:21;9.82;;;2.50;;
74152;SDS011;62505;46.070;14.492;2023-08-07T02:12:50;13.43;;;2.53;;
74152;SDS011;62505;46.070;14.492;2023-08-07T02:15:17;13.15;;;2.95;;
74152;SDS011;62505;46.070;14.492;2023-08-07T02:17:44;19.92;;;2.88;;
74152;SDS011;62505;46.070;14.492;2023-08-07T02:20:11;15.15;;;2.13;;
74152;SDS011;62505;46.070;14.492;2023-08-07T02:22:38;17.15;;;2.80;;
74152;SDS011;62505;46.070;14.492;2023-08-07T02:25:05;10.77;;;2.67;;
74152;SDS011;62505;46.070;14.492;2023-08-07T02:27:33;15.68;;;2.45;;
74152;SDS011;62505;46.070;14.492;2023-08-07T02:30:01;9.45;;;2.42;;
74152;SDS011;62505;46.070;14.492;2023-08-07T02:32:29;12.70;;;2.95;;
74152;SDS011;62505;46.070;14.492;2023-08-07T02:34:56;12.52;;;2.80;;
74152;SDS011;62505;46.070;14.492;2023-08-07T02:37:23;9.80;;;2.05;;
74152;SDS011;62505;46.070;14.492;2023-08-07T02:39:50;10.18;;;2.30;;
74152;SDS011;62505;46.070;14.492;2023-08-07T02:42:18;11.60;;;2.60;;
74152;SDS011;62505;46.070;14.492;2023-08-07T02:44:46;12.82;;;2.50;;
74152;SDS011;62505;46.070;14.492;2023-08-07T02:47:14;15.48;;;2.40;;
74152;SDS011;62505;46.070;14.492;2023-08-07T02:49:41;11.15;;;2.70;;
74152;SDS011;62505;46.070;14.492;2023-08-07T02:52:08;15.48;;;2.40;;
74152;SDS011;62505;46.070;14.492;2023-08-07T02:54:35;10.65;;;2.20;;
74152;SDS011;62505;46.070;14.492;2023-08-07T02:57:02;15.77;;;2.35;;
74152;SDS011;62505;46.070;14.492;2023-08-07T02:59:29;10.70;;;1.80;;
74152;SDS011;62505;46.070;14.492;2023-08-07T03:01:56;9.65;;;2.45;;
74152;SDS011;62505;46.070;14.492;2023-08-07T03:04:25;13.18;;;2.95;;
74152;SDS011;62505;46.070;14.492;2023-08-07T03:06:52;15.55;;;2.78;;
74152;SDS011;62505;46.070;14.492;2023-08-07T03:09:19;16.98;;;2.70;;
74152;SDS011;62505;46.070;14.492;2023-08-07T03:11:46;11.52;;;2.90;;
74152;SDS011;62505;46.070;14.492;2023-08-07T03:14:13;17.73;;;2.42;;
74152;SDS011;62505;46.070;14.492;2023-08-07T03:16:40;13.90;;;3.10;;
74152;SDS011;62505;46.070;14.492;2023-08-07T03:19:07;14.65;;;3.20;;
74152;SDS011;62505;46.070;14.492;2023-08-07T03:21:36;7.75;;;2.25;;
74152;SDS011;62505;46.070;14.492;2023-08-07T03:24:04;16.55;;;2.28;;
74152;SDS011;62505;46.070;14.492;2023-08-07T03:26:31;14.90;;;2.92;;
74152;SDS011;62505;46.070;14.492;2023-08-07T03:28:58;15.73;;;2.70;;
74152;SDS011;62505;46.070;14.492;2023-08-07T03:31:25;9.35;;;2.03;;
74152;SDS011;62505;46.070;14.492;2023-08-07T03:33:52;12.85;;;2.90;;
74152;SDS011;62505;46.070;14.492;2023-08-07T03:36:19;12.35;;;2.28;;
74152;SDS011;62505;46.070;14.492;2023-08-07T03:38:48;12.65;;;2.50;;
74152;SDS011;62505;46.070;14.492;2023-08-07T03:41:15;11.18;;;2.63;;
74152;SDS011;62505;46.070;14.492;2023-08-07T03:43:42;12.88;;;2.08;;
74152;SDS011;62505;46.070;14.492;2023-08-07T03:46:09;10.73;;;2.25;;
74152;SDS011;62505;46.070;14.492;2023-08-07T03:48:36;11.80;;;2.50;;
74152;SDS011;62505;46.070;14.492;2023-08-07T03:51:04;12.65;;;2.60;;
74152;SDS011;62505;46.070;14.492;2023-08-07T03:53:33;9.52;;;2.17;;
74152;SDS011;62505;46.070;14.492;2023-08-07T03:56:01;8.52;;;2.40;;
74152;SDS011;62505;46.070;14.492;2023-08-07T03:58:29;12.75;;;2.42;;
74152;SDS011;62505;46.070;14.492;2023-08-07T04:00:56;12.25;;;2.05;;
74152;SDS011;62505;46.070;14.492;2023-08-07T04:03:23;10.35;;;2.20;;
74152;SDS011;62505;46.070;14.492;2023-08-07T04:05:51;14.57;;;2.72;;
74152;SDS011;62505;46.070;14.492;2023-08-07T04:08:18;14.32;;;2.72;;
74152;SDS011;62505;46.070;14.492;2023-08-07T04:10:46;16.38;;;3.25;;
74152;SDS011;62505;46.070;14.492;2023-08-07T04:13:25;17.52;;;3.55;;
74152;SDS011;62505;46.070;14.492;2023-08-07T04:15:52;16.13;;;3.25;;
74152;SDS011;62505;46.070;14.492;2023-08-07T04:18:19;18.77;;;3.20;;
74152;SDS011;62505;46.070;14.492;2023-08-07T04:20:48;12.85;;;2.80;;
74152;SDS011;62505;46.070;14.492;2023-08-07T04:23:15;17.60;;;2.88;;
74152;SDS011;62505;46.070;14.492;2023-08-07T04:25:42;13.05;;;2.95;;
74152;SDS011;62505;46.070;14.492;2023-08-07T04:28:09;21.33;;;3.42;;
74152;SDS011;62505;46.070;14.492;2023-08-07T04:30:38;21.52;;;3.60;;
74152;SDS011;62505;46.070;14.492;2023-08-07T04:33:05;15.63;;;3.05;;
74152;SDS011;62505;46.070;14.492;2023-08-07T04:35:32;17.40;;;3.50;;
74152;SDS011;62505;46.070;14.492;2023-08-07T04:37:59;23.88;;;3.80;;
74152;SDS011;62505;46.070;14.492;2023-08-07T04:40:26;28.42;;;3.97;;
74152;SDS011;62505;46.070;14.492;2023-08-07T04:42:53;16.17;;;3.70;;
74152;SDS011;62505;46.070;14.492;2023-08-07T04:45:20;18.88;;;3.70;;
74152;SDS011;62505;46.070;14.492;2023-08-07T04:47:49;17.48;;;3.25;;
74152;SDS011;62505;46.070;14.492;2023-08-07T04:50:16;18.58;;;3.58;;
74152;SDS011;62505;46.070;14.492;2023-08-07T04:52:44;16.70;;;3.08;;
74152;SDS011;62505;46.070;14.492;2023-08-07T04:55:11;15.25;;;3.20;;
74152;SDS011;62505;46.070;14.492;2023-08-07T04:57:38;19.08;;;3.70;;
74152;SDS011;62505;46.070;14.492;2023-08-07T05:00:05;16.75;;;2.50;;
74152;SDS011;62505;46.070;14.492;2023-08-07T05:02:34;13.65;;;2.60;;
74152;SDS011;62505;46.070;14.492;2023-08-07T05:05:03;23.60;;;3.95;;
74152;SDS011;62505;46.070;14.492;2023-08-07T05:07:32;12.93;;;3.17;;
74152;SDS011;62505;46.070;14.492;2023-08-07T05:10:00;9.90;;;3.03;;
74152;SDS011;62505;46.070;14.492;2023-08-07T05:12:28;10.30;;;2.95;;
74152;SDS011;62505;46.070;14.492;2023-08-07T05:14:55;17.10;;;2.90;;
74152;SDS011;62505;46.070;14.492;2023-08-07T05:17:22;15.82;;;3.30;;
74152;SDS011;62505;46.070;14.492;2023-08-07T05:19:49;13.60;;;3.25;;
74152;SDS011;62505;46.070;14.492;2023-08-07T05:22:17;9.70;;;2.63;;
74152;SDS011;62505;46.070;14.492;2023-08-07T05:24:44;9.88;;;2.72;;
74152;SDS011;62505;46.070;14.492;2023-08-07T05:27:13;12.63;;;2.50;;
74152;SDS011;62505;46.070;14.492;2023-08-07T05:29:41;9.27;;;2.75;;
74152;SDS011;62505;46.070;14.492;2023-08-07T05:32:09;8.70;;;2.33;;
74152;SDS011;62505;46.070;14.492;2023-08-07T05:34:37;6.47;;;2.38;;
74152;SDS011;62505;46.070;14.492;2023-08-07T05:37:04;11.95;;;2.60;;
74152;SDS011;62505;46.070;14.492;2023-08-07T05:39:33;9.30;;;2.63;;
74152;SDS011;62505;46.070;14.492;2023-08-07T05:42:00;12.82;;;2.65;;
74152;SDS011;62505;46.070;14.492;2023-08-07T05:44:29;16.52;;;3.05;;
74152;SDS011;62505;46.070;14.492;2023-08-07T05:46:56;9.30;;;2.22;;
74152;SDS011;62505;46.070;14.492;2023-08-07T05:49:23;10.20;;;2.78;;
74152;SDS011;62505;46.070;14.492;2023-08-07T05:51:50;9.48;;;2.28;;
74152;SDS011;62505;46.070;14.492;2023-08-07T05:54:17;6.35;;;2.45;;
74152;SDS011;62505;46.070;14.492;2023-08-07T05:56:45;9.45;;;2.10;;
74152;SDS011;62505;46.070;14.492;2023-08-07T05:59:12;9.70;;;2.58;;
74152;SDS011;62505;46.070;14.492;2023-08-07T06:01:40;9.80;;;2.63;;
74152;SDS011;62505;46.070;14.492;2023-08-07T06:04:07;8.40;;;2.75;;
74152;SDS011;62505;46.070;14.492;2023-08-07T06:06:35;5.50;;;2.05;;
74152;SDS011;62505;46.070;14.492;2023-08-07T06:09:04;8.65;;;2.10;;
74152;SDS011;62505;46.070;14.492;2023-08-07T06:11:31;9.45;;;2.40;;
74152;SDS011;62505;46.070;14.492;2023-08-07T06:14:00;7.22;;;2.10;;
74152;SDS011;62505;46.070;14.492;2023-08-07T06:16:27;8.05;;;2.60;;
74152;SDS011;62505;46.070;14.492;2023-08-07T06:18:54;5.55;;;1.70;;
74152;SDS011;62505;46.070;14.492;2023-08-07T06:21:22;5.88;;;2.30;;
74152;SDS011;62505;46.070;14.492;2023-08-07T06:23:49;5.13;;;1.63;;
74152;SDS011;62505;46.070;14.492;2023-08-07T06:26:16;5.95;;;2.15;;
74152;SDS011;62505;46.070;14.492;2023-08-07T06:28:43;5.88;;;2.10;;
74152;SDS011;62505;46.070;14.492;2023-08-07T06:31:11;10.15;;;2.40;;
74152;SDS011;62505;46.070;14.492;2023-08-07T06:33:42;6.60;;;2.25;;
74152;SDS011;62505;46.070;14.492;2023-08-07T06:36:09;6.68;;;2.10;;
74152;SDS011;62505;46.070;14.492;2023-08-07T06:38:36;3.80;;;2.00;;
74152;SDS011;62505;46.070;14.492;2023-08-07T06:41:03;5.10;;;1.83;;
74152;SDS011;62505;46.070;14.492;2023-08-07T06:43:31;5.68;;;2.15;;
74152;SDS011;62505;46.070;14.492;2023-08-07T06:45:58;3.30;;;1.83;;
74152;SDS011;62505;46.070;14.492;2023-08-07T06:48:27;4.97;;;1.90;;
74152;SDS011;62505;46.070;14.492;2023-08-07T06:50:54;7.38;;;2.30;;
74152;SDS011;62505;46.070;14.492;2023-08-07T06:53:21;5.07;;;1.73;;
74152;SDS011;62505;46.070;14.492;2023-08-07T06:55:48;7.43;;;1.88;;
74152;SDS011;62505;46.070;14.492;2023-08-07T06:58:15;5.60;;;1.70;;
74152;SDS011;62505;46.070;14.492;2023-08-07T07:00:42;4.05;;;2.20;;
74152;SDS011;62505;46.070;14.492;2023-08-07T07:03:09;4.00;;;2.13;;
74152;SDS011;62505;46.070;14.492;2023-08-07T07:05:38;3.95;;;1.40;;
74152;SDS011;62505;46.070;14.492;2023-08-07T07:08:08;7.07;;;2.30;;
74152;SDS011;62505;46.070;14.492;2023-08-07T07:10:35;5.10;;;1.80;;
74152;SDS011;62505;46.070;14.492;2023-08-07T07:13:02;4.25;;;1.88;;
74152;SDS011;62505;46.070;14.492;2023-08-07T07:15:29;5.60;;;1.80;;
74152;SDS011;62505;46.070;14.492;2023-08-07T07:17:56;3.33;;;1.88;;
74152;SDS011;62505;46.070;14.492;2023-08-07T07:20:23;4.85;;;2.15;;
74152;SDS011;62505;46.070;14.492;2023-08-07T07:22:53;5.00;;;2.00;;
74152;SDS011;62505;46.070;14.492;2023-08-07T07:25:20;4.60;;;1.67;;
74152;SDS011;62505;46.070;14.492;2023-08-07T07:27:47;4.00;;;1.98;;
74152;SDS011;62505;46.070;14.492;2023-08-07T07:30:14;5.55;;;2.13;;
74152;SDS011;62505;46.070;14.492;2023-08-07T07:32:41;6.32;;;2.05;;
74152;SDS011;62505;46.070;14.492;2023-08-07T07:35:08;4.43;;;1.60;;
74152;SDS011;62505;46.070;14.492;2023-08-07T07:37:35;4.30;;;1.83;;
74152;SDS011;62505;46.070;14.492;2023-08-07T07:40:04;4.97;;;1.98;;
74152;SDS011;62505;46.070;14.492;2023-08-07T07:42:32;4.75;;;1.88;;
74152;SDS011;62505;46.070;14.492;2023-08-07T07:44:59;4.78;;;2.20;;
74152;SDS011;62505;46.070;14.492;2023-08-07T07:47:26;4.53;;;2.30;;
74152;SDS011;62505;46.070;14.492;2023-08-07T07:50:04;6.43;;;1.90;;
74152;SDS011;62505;46.070;14.492;2023-08-07T07:52:32;3.72;;;2.08;;
74152;SDS011;62505;46.070;14.492;2023-08-07T07:54:59;2.97;;;2.05;;
74152;SDS011;62505;46.070;14.492;2023-08-07T07:57:28;3.78;;;2.45;;
74152;SDS011;62505;46.070;14.492;2023-08-07T07:59:55;4.05;;;2.40;;
74152;SDS011;62505;46.070;14.492;2023-08-07T08:02:22;2.90;;;2.00;;
74152;SDS011;62505;46.070;14.492;2023-08-07T08:04:50;3.33;;;2.47;;
74152;SDS011;62505;46.070;14.492;2023-08-07T08:07:17;3.38;;;2.17;;
74152;SDS011;62505;46.070;14.492;2023-08-07T08:09:44;9.00;;;3.10;;
74152;SDS011;62505;46.070;14.492;2023-08-07T08:12:12;3.42;;;2.25;;
74152;SDS011;62505;46.070;14.492;2023-08-07T08:14:40;4.13;;;2.67;;
74152;SDS011;62505;46.070;14.492;2023-08-07T08:17:07;4.30;;;2.10;;
74152;SDS011;62505;46.070;14.492;2023-08-07T08:19:35;7.45;;;2.55;;
74152;SDS011;62505;46.070;14.492;2023-08-07T08:22:02;3.92;;;2.30;;
74152;SDS011;62505;46.070;14.492;2023-08-07T08:24:29;2.63;;;2.00;;
74152;SDS011;62505;46.070;14.492;2023-08-07T08:26:56;3.38;;;1.75;;
74152;SDS011;62505;46.070;14.492;2023-08-07T08:29:23;4.28;;;2.30;;
74152;SDS011;62505;46.070;14.492;2023-08-07T08:31:53;2.33;;;1.90;;
74152;SDS011;62505;46.070;14.492;2023-08-07T08:34:21;3.67;;;2.22;;
74152;SDS011;62505;46.070;14.492;2023-08-07T08:36:48;4.00;;;1.98;;
74152;SDS011;62505;46.070;14.492;2023-08-07T08:39:15;3.90;;;2.17;;
74152;SDS011;62505;46.070;14.492;2023-08-07T08:41:42;3.28;;;1.85;;
74152;SDS011;62505;46.070;14.492;2023-08-07T08:44:13;7.40;;;1.77;;
74152;SDS011;62505;46.070;14.492;2023-08-07T08:46:41;3.83;;;2.00;;
74152;SDS011;62505;46.070;14.492;2023-08-07T08:49:10;3.92;;;1.92;;
74152;SDS011;62505;46.070;14.492;2023-08-07T08:51:39;4.13;;;2.10;;
74152;SDS011;62505;46.070;14.492;2023-08-07T08:54:07;2.67;;;1.77;;
74152;SDS011;62505;46.070;14.492;2023-08-07T08:56:34;3.03;;;1.95;;
74152;SDS011;62505;46.070;14.492;2023-08-07T08:59:03;4.30;;;2.17;;
74152;SDS011;62505;46.070;14.492;2023-08-07T09:01:30;2.75;;;1.90;;
74152;SDS011;62505;46.070;14.492;2023-08-07T09:03:57;3.63;;;1.90;;
74152;SDS011;62505;46.070;14.492;2023-08-07T09:06:27;3.40;;;1.70;;
74152;SDS011;62505;46.070;14.492;2023-08-07T09:08:57;2.67;;;1.80;;
74152;SDS011;62505;46.070;14.492;2023-08-07T09:11:26;3.58;;;2.00;;
74152;SDS011;62505;46.070;14.492;2023-08-07T09:13:55;2.65;;;1.95;;
74152;SDS011;62505;46.070;14.492;2023-08-07T09:16:23;2.50;;;1.67;;
74152;SDS011;62505;46.070;14.492;2023-08-07T09:18:50;2.30;;;1.73;;
74152;SDS011;62505;46.070;14.492;2023-08-07T09:21:19;2.58;;;1.70;;
74152;SDS011;62505;46.070;14.492;2023-08-07T09:23:48;2.67;;;1.65;;
74152;SDS011;62505;46.070;14.492;2023-08-07T09:26:16;2.38;;;1.60;;
74152;SDS011;62505;46.070;14.492;2023-08-07T09:28:50;3.47;;;1.80;;
74152;SDS011;62505;46.070;14.492;2023-08-07T09:31:19;3.38;;;1.70;;
74152;SDS011;62505;46.070;14.492;2023-08-07T09:33:46;4.75;;;1.52;;
74152;SDS011;62505;46.070;14.492;2023-08-07T09:36:14;3.10;;;1.95;;
74152;SDS011;62505;46.070;14.492;2023-08-07T09:38:42;1.95;;;1.30;;
74152;SDS011;62505;46.070;14.492;2023-08-07T09:41:10;3.55;;;1.42;;
74152;SDS011;62505;46.070;14.492;2023-08-07T09:43:38;5.15;;;1.33;;
74152;SDS011;62505;46.070;14.492;2023-08-07T09:46:05;4.15;;;1.95;;
74152;SDS011;62505;46.070;14.492;2023-08-07T09:48:38;4.00;;;1.63;;
74152;SDS011;62505;46.070;14.492;2023-08-07T09:51:06;2.33;;;1.67;;
74152;SDS011;62505;46.070;14.492;2023-08-07T09:53:33;3.58;;;1.40;;
74152;SDS011;62505;46.070;14.492;2023-08-07T09:56:01;3.38;;;1.90;;
74152;SDS011;62505;46.070;14.492;2023-08-07T09:58:30;2.72;;;1.48;;
74152;SDS011;62505;46.070;14.492;2023-08-07T10:00:58;2.90;;;1.60;;
74152;SDS011;62505;46.070;14.492;2023-08-07T10:03:25;2.58;;;1.70;;
74152;SDS011;62505;46.070;14.492;2023-08-07T10:05:52;3.35;;;1.45;;
74152;SDS011;62505;46.070;14.492;2023-08-07T10:08:20;5.85;;;1.83;;
74152;SDS011;62505;46.070;14.492;2023-08-07T10:10:48;3.60;;;1.77;;
74152;SDS011;62505;46.070;14.492;2023-08-07T10:13:15;3.35;;;1.65;;
74152;SDS011;62505;46.070;14.492;2023-08-07T10:15:43;4.78;;;1.83;;
74152;SDS011;62505;46.070;14.492;2023-08-07T10:18:12;4.68;;;1.52;;
74152;SDS011;62505;46.070;14.492;2023-08-07T10:20:39;2.05;;;1.52;;
74152;SDS011;62505;46.070;14.492;2023-08-07T10:23:08;3.63;;;1.60;;
74152;SDS011;62505;46.070;14.492;2023-08-07T10:25:36;3.10;;;1.80;;
74152;SDS011;62505;46.070;14.492;2023-08-07T10:28:06;3.15;;;1.70;;
74152;SDS011;62505;46.070;14.492;2023-08-07T10:30:36;3.35;;;1.73;;
74152;SDS011;62505;46.070;14.492;2023-08-07T10:33:08;7.20;;;1.85;;
74152;SDS011;62505;46.070;14.492;2023-08-07T10:35:36;5.40;;;1.60;;
74152;SDS011;62505;46.070;14.492;2023-08-07T10:38:05;5.30;;;1.60;;
74152;SDS011;62505;46.070;14.492;2023-08-07T10:40:33;2.78;;;1.48;;
74152;SDS011;62505;46.070;14.492;2023-08-07T10:43:11;4.95;;;1.90;;
74152;SDS011;62505;46.070;14.492;2023-08-07T10:45:39;6.00;;;1.60;;
74152;SDS011;62505;46.070;14.492;2023-08-07T10:48:08;2.10;;;1.48;;
74152;SDS011;62505;46.070;14.492;2023-08-07T10:50:48;4.50;;;1.75;;
74152;SDS011;62505;46.070;14.492;2023-08-07T10:53:20;6.20;;;1.73;;
74152;SDS011;62505;46.070;14.492;2023-08-07T10:55:54;3.35;;;1.45;;
74152;SDS011;62505;46.070;14.492;2023-08-07T10:58:23;3.30;;;1.30;;
74152;SDS011;62505;46.070;14.492;2023-08-07T11:00:51;4.80;;;1.63;;
74152;SDS011;62505;46.070;14.492;2023-08-07T11:06:08;2.60;;;1.35;;
74152;SDS011;62505;46.070;14.492;2023-08-07T11:08:35;5.32;;;1.67;;
74152;SDS011;62505;46.070;14.492;2023-08-07T11:11:04;10.75;;;2.03;;
74152;SDS011;62505;46.070;14.492;2023-08-07T11:13:31;1.88;;;1.40;;
74152;SDS011;62505;46.070;14.492;2023-08-07T11:15:59;2.65;;;1.45;;
74152;SDS011;62505;46.070;14.492;2023-08-07T11:18:26;4.90;;;1.35;;
74152;SDS011;62505;46.070;14.492;2023-08-07T11:20:55;3.63;;;1.52;;
74152;SDS011;62505;46.070;14.492;2023-08-07T11:23:23;5.43;;;1.20;;
74152;SDS011;62505;46.070;14.492;2023-08-07T11:25:50;3.63;;;1.50;;
74152;SDS011;62505;46.070;14.492;2023-08-07T11:28:18;2.17;;;1.20;;
74152;SDS011;62505;46.070;14.492;2023-08-07T11:30:46;3.40;;;1.50;;
74152;SDS011;62505;46.070;14.492;2023-08-07T11:33:16;1.60;;;1.13;;
74152;SDS011;62505;46.070;14.492;2023-08-07T11:35:44;1.80;;;1.23;;
74152;SDS011;62505;46.070;14.492;2023-08-07T11:38:12;2.42;;;1.15;;
74152;SDS011;62505;46.070;14.492;2023-08-07T11:40:54;2.58;;;1.30;;
74152;SDS011;62505;46.070;14.492;2023-08-07T11:43:24;6.63;;;1.63;;
74152;SDS011;62505;46.070;14.492;2023-08-07T11:45:52;4.20;;;1.60;;
74152;SDS011;62505;46.070;14.492;2023-08-07T11:48:23;2.80;;;1.38;;
74152;SDS011;62505;46.070;14.492;2023-08-07T11:50:51;2.40;;;1.17;;
74152;SDS011;62505;46.070;14.492;2023-08-07T11:53:20;2.35;;;1.38;;
74152;SDS011;62505;46.070;14.492;2023-08-07T11:55:51;2.03;;;1.08;;
74152;SDS011;62505;46.070;14.492;2023-08-07T11:58:19;1.55;;;1.02;;
74152;SDS011;62505;46.070;14.492;2023-08-07T12:00:47;2.85;;;1.42;;
74152;SDS011;62505;46.070;14.492;2023-08-07T12:03:27;1.83;;;1.17;;
74152;SDS011;62505;46.070;14.492;2023-08-07T12:05:56;2.03;;;1.30;;
74152;SDS011;62505;46.070;14.492;2023-08-07T12:08:30;4.18;;;1.20;;
74152;SDS011;62505;46.070;14.492;2023-08-07T12:11:00;1.95;;;1.10;;
74152;SDS011;62505;46.070;14.492;2023-08-07T12:13:28;2.65;;;1.27;;
74152;SDS011;62505;46.070;14.492;2023-08-07T12:15:56;1.75;;;1.10;;
74152;SDS011;62505;46.070;14.492;2023-08-07T12:18:26;3.20;;;1.33;;
74152;SDS011;62505;46.070;14.492;2023-08-07T12:20:56;1.65;;;1.00;;
74152;SDS011;62505;46.070;14.492;2023-08-07T12:23:26;3.47;;;1.20;;
74152;SDS011;62505;46.070;14.492;2023-08-07T12:25:54;1.83;;;1.25;;
74152;SDS011;62505;46.070;14.492;2023-08-07T12:28:21;2.50;;;1.10;;
74152;SDS011;62505;46.070;14.492;2023-08-07T12:30:48;4.75;;;1.20;;
74152;SDS011;62505;46.070;14.492;2023-08-07T12:33:16;4.63;;;1.55;;
74152;SDS011;62505;46.070;14.492;2023-08-07T12:35:43;4.43;;;1.20;;
74152;SDS011;62505;46.070;14.492;2023-08-07T12:38:10;3.83;;;0.93;;
74152;SDS011;62505;46.070;14.492;2023-08-07T12:40:40;3.70;;;1.45;;
74152;SDS011;62505;46.070;14.492;2023-08-07T12:43:07;2.17;;;0.98;;
74152;SDS011;62505;46.070;14.492;2023-08-07T12:45:34;1.88;;;1.20;;
74152;SDS011;62505;46.070;14.492;2023-08-07T12:48:01;4.22;;;1.00;;
74152;SDS011;62505;46.070;14.492;2023-08-07T12:50:29;3.25;;;1.42;;
74152;SDS011;62505;46.070;14.492;2023-08-07T12:52:56;2.78;;;1.05;;
74152;SDS011;62505;46.070;14.492;2023-08-07T12:55:23;2.10;;;1.20;;
74152;SDS011;62505;46.070;14.492;2023-08-07T12:57:53;3.50;;;1.17;;
74152;SDS011;62505;46.070;14.492;2023-08-07T13:00:21;2.70;;;1.23;;
74152;SDS011;62505;46.070;14.492;2023-08-07T13:02:49;4.05;;;1.20;;
74152;SDS011;62505;46.070;14.492;2023-08-07T13:05:17;1.92;;;1.02;;
74152;SDS011;62505;46.070;14.492;2023-08-07T13:07:47;3.92;;;1.20;;
74152;SDS011;62505;46.070;14.492;2023-08-07T13:10:15;3.97;;;2.13;;
74152;SDS011;62505;46.070;14.492;2023-08-07T13:12:44;1.92;;;1.20;;
74152;SDS011;62505;46.070;14.492;2023-08-07T13:15:14;2.03;;;1.02;;
74152;SDS011;62505;46.070;14.492;2023-08-07T13:17:43;4.75;;;1.13;;
74152;SDS011;62505;46.070;14.492;2023-08-07T13:20:10;2.03;;;1.08;;
74152;SDS011;62505;46.070;14.492;2023-08-07T13:22:39;1.42;;;1.08;;
74152;SDS011;62505;46.070;14.492;2023-08-07T13:25:08;3.15;;;1.27;;
74152;SDS011;62505;46.070;14.492;2023-08-07T13:27:36;5.90;;;1.40;;
74152;SDS011;62505;46.070;14.492;2023-08-07T13:30:04;3.58;;;1.00;;
74152;SDS011;62505;46.070;14.492;2023-08-07T13:32:33;3.33;;;0.95;;
74152;SDS011;62505;46.070;14.492;2023-08-07T13:35:01;4.47;;;1.05;;
74152;SDS011;62505;46.070;14.492;2023-08-07T13:37:28;2.28;;;1.25;;
74152;SDS011;62505;46.070;14.492;2023-08-07T13:39:55;4.30;;;1.55;;
74152;SDS011;62505;46.070;14.492;2023-08-07T13:42:23;5.07;;;1.48;;
74152;SDS011;62505;46.070;14.492;2023-08-07T13:44:51;2.60;;;0.82;;
74152;SDS011;62505;46.070;14.492;2023-08-07T13:47:18;6.53;;;1.23;;
74152;SDS011;62505;46.070;14.492;2023-08-07T13:49:47;6.90;;;1.30;;
74152;SDS011;62505;46.070;14.492;2023-08-07T13:52:14;8.65;;;1.77;;
74152;SDS011;62505;46.070;14.492;2023-08-07T13:54:41;4.63;;;1.45;;
74152;SDS011;62505;46.070;14.492;2023-08-07T13:57:08;12.48;;;1.63;;
74152;SDS011;62505;46.070;14.492;2023-08-07T13:59:35;3.15;;;0.90;;
74152;SDS011;62505;46.070;14.492;2023-08-07T14:02:02;3.75;;;1.10;;
74152;SDS011;62505;46.070;14.492;2023-08-07T14:04:29;3.22;;;1.00;;
74152;SDS011;62505;46.070;14.492;2023-08-07T14:06:58;4.93;;;1.13;;
74152;SDS011;62505;46.070;14.492;2023-08-07T14:09:25;6.35;;;1.52;;
74152;SDS011;62505;46.070;14.492;2023-08-07T14:11:53;3.85;;;0.90;;
74152;SDS011;62505;46.070;14.492;2023-08-07T14:14:21;4.43;;;0.93;;
74152;SDS011;62505;46.070;14.492;2023-08-07T14:16:48;2.53;;;0.63;;
74152;SDS011;62505;46.070;14.492;2023-08-07T14:19:15;2.00;;;0.93;;
74152;SDS011;62505;46.070;14.492;2023-08-07T14:21:42;5.03;;;1.15;;
74152;SDS011;62505;46.070;14.492;2023-08-07T14:24:10;1.60;;;0.80;;
74152;SDS011;62505;46.070;14.492;2023-08-07T14:26:37;3.53;;;0.98;;
74152;SDS011;62505;46.070;14.492;2023-08-07T14:29:04;4.68;;;0.95;;
74152;SDS011;62505;46.070;14.492;2023-08-07T14:31:31;3.53;;;0.82;;
74152;SDS011;62505;46.070;14.492;2023-08-07T14:33:58;1.77;;;0.65;;
74152;SDS011;62505;46.070;14.492;2023-08-07T14:36:25;3.70;;;0.90;;
74152;SDS011;62505;46.070;14.492;2023-08-07T14:38:52;2.85;;;0.90;;